Time;durP1;ratioP1;P1;durP2;ratioP2;P2;SDS_P1;SDS_P2;PMS_P1;PMS_P2;Temp;Humidity;BMP_temperature;BMP_pressure;BME280_temperature;BME280_humidity;BME280_pressure;Samples;Min_cycle;Max_cycle;Signal;HPM_P1;HPM_P2
2021/03/01 00:00:45;;;;;;;4.88;3.63;;;;;;;11.89;56.54;102683.72;4922565;28;126835;-62
2021/03/01 00:03:11;;;;;;;4.88;3.88;;;;;;;11.91;56.24;102687.88;4920385;28;121996;-62
2021/03/01 00:05:37;;;;;;;4.05;3.17;;;;;;;11.92;56.30;102694.91;4954364;28;98158;-62
2021/03/01 00:08:03;;;;;;;4.40;3.17;;;;;;;11.94;56.70;102697.38;4937680;28;99624;-62
2021/03/01 00:10:29;;;;;;;4.30;2.92;;;;;;;11.92;56.44;102696.81;4921706;28;119757;-62
2021/03/01 00:12:55;;;;;;;4.57;3.30;;;;;;;11.90;56.24;102699.72;4904578;28;97890;-62
2021/03/01 00:15:23;;;;;;;4.55;3.03;;;;;;;11.91;56.09;102692.47;4922414;28;128048;-62
2021/03/01 00:17:49;;;;;;;3.78;2.90;;;;;;;11.89;56.48;102705.34;4937285;28;102917;-62
2021/03/01 00:20:15;;;;;;;3.90;3.15;;;;;;;11.85;56.21;102688.75;4922155;28;127716;-62
2021/03/01 00:22:42;;;;;;;4.35;3.15;;;;;;;11.92;56.55;102694.91;4922150;28;122324;-62
2021/03/01 00:25:09;;;;;;;3.95;3.20;;;;;;;11.89;56.52;102697.25;4922538;28;124225;-62
2021/03/01 00:27:35;;;;;;;4.53;3.38;;;;;;;11.88;56.35;102703.69;4922784;28;99637;-62
2021/03/01 00:30:01;;;;;;;4.55;3.40;;;;;;;11.85;55.94;102699.56;4922425;28;103953;-62
2021/03/01 00:32:27;;;;;;;4.20;2.95;;;;;;;11.83;56.16;102696.25;4922147;28;101203;-62
2021/03/01 00:34:53;;;;;;;4.05;3.33;;;;;;;11.83;56.25;102701.66;4921911;28;127474;-62
2021/03/01 00:37:19;;;;;;;4.15;2.95;;;;;;;11.84;56.56;102692.50;4922406;28;118783;-62
2021/03/01 00:39:45;;;;;;;4.05;3.25;;;;;;;11.78;56.59;102680.66;4921459;28;127255;-62
2021/03/01 00:42:11;;;;;;;3.70;3.10;;;;;;;11.78;56.67;102690.66;4922972;28;108503;-62
2021/03/01 00:44:37;;;;;;;3.78;3.17;;;;;;;11.78;56.73;102691.47;4920423;28;115430;-62
2021/03/01 00:47:03;;;;;;;4.25;3.45;;;;;;;11.76;56.45;102684.66;4922102;28;116634;-62
2021/03/01 00:49:29;;;;;;;4.60;3.47;;;;;;;11.75;56.30;102677.56;4921335;28;127975;-62
2021/03/01 00:51:55;;;;;;;4.03;3.20;;;;;;;11.75;56.69;102686.53;4923357;28;99113;-62
2021/03/01 00:54:21;;;;;;;5.13;3.33;;;;;;;11.74;56.28;102689.44;4919776;28;127196;-62
2021/03/01 00:56:48;;;;;;;4.07;3.22;;;;;;;11.75;56.63;102689.22;4922050;28;117131;-63
2021/03/01 00:59:14;;;;;;;4.68;3.70;;;;;;;11.75;56.51;102693.78;4920368;28;108283;-62
2021/03/01 01:01:40;;;;;;;4.35;3.58;;;;;;;11.73;56.66;102695.91;4922189;28;128845;-62
2021/03/01 01:04:06;;;;;;;5.30;3.72;;;;;;;11.73;56.84;102696.72;4921195;28;127507;-63
2021/03/01 01:06:32;;;;;;;4.28;3.40;;;;;;;11.71;56.78;102696.13;4953013;28;117087;-62
2021/03/01 01:08:58;;;;;;;4.95;3.80;;;;;;;11.70;56.48;102691.75;4920580;28;114696;-62
2021/03/01 01:11:24;;;;;;;5.68;3.95;;;;;;;11.68;56.86;102691.16;4921873;28;127282;-62
2021/03/01 01:13:50;;;;;;;5.32;3.90;;;;;;;11.69;56.58;102694.69;4921221;28;126163;-62
2021/03/01 01:16:16;;;;;;;4.80;3.90;;;;;;;11.67;56.48;102688.66;4922168;28;106114;-63
2021/03/01 01:18:42;;;;;;;5.07;4.00;;;;;;;11.67;56.62;102686.81;4921517;28;128545;-62
2021/03/01 01:21:08;;;;;;;4.93;3.92;;;;;;;11.65;56.44;102682.66;4903353;28;126832;-62
2021/03/01 01:23:34;;;;;;;5.70;4.15;;;;;;;11.65;56.89;102675.38;4921752;28;125526;-62
2021/03/01 01:26:00;;;;;;;6.00;4.30;;;;;;;11.65;56.79;102674.56;4921831;28;116838;-62
2021/03/01 01:28:26;;;;;;;5.75;4.35;;;;;;;11.65;56.84;102666.47;4921961;28;128297;-62
2021/03/01 01:30:52;;;;;;;6.45;4.38;;;;;;;11.63;56.80;102668.53;4919609;28;127872;-62
2021/03/01 01:33:18;;;;;;;6.22;4.70;;;;;;;11.63;56.62;102671.25;4919627;28;127986;-62
2021/03/01 01:35:44;;;;;;;5.47;4.18;;;;;;;11.62;57.05;102666.91;4919949;28;117195;-62
2021/03/01 01:38:10;;;;;;;4.95;4.13;;;;;;;11.61;56.32;102667.94;4921564;28;127991;-63
2021/03/01 01:40:37;;;;;;;6.20;4.40;;;;;;;11.61;56.97;102673.34;4922338;28;109269;-62
2021/03/01 01:43:03;;;;;;;4.80;3.80;;;;;;;11.60;56.97;102664.44;4922070;28;98557;-62
2021/03/01 01:45:29;;;;;;;4.68;3.90;;;;;;;11.58;56.91;102665.69;4920776;28;117917;-62
2021/03/01 01:47:55;;;;;;;5.57;4.20;;;;;;;11.58;56.46;102668.38;4902635;28;120506;-62
2021/03/01 01:50:24;;;;;;;6.13;4.13;;;;;;;11.57;56.99;102658.63;4921697;28;98921;-62
2021/03/01 01:52:51;;;;;;;5.63;4.25;;;;;;;11.55;56.86;102658.84;4920394;28;97861;-62
2021/03/01 01:55:17;;;;;;;5.50;4.57;;;;;;;11.57;57.01;102655.94;4920675;28;97769;-62
2021/03/01 01:57:43;;;;;;;5.35;4.22;;;;;;;11.54;56.99;102658.00;4919334;28;125240;-62
2021/03/01 02:00:38;;;;;;;6.07;4.40;;;;;;;11.54;56.82;102659.91;4920899;28;124351;-62
2021/03/01 02:03:35;;;;;;;5.63;4.30;;;;;;;11.50;56.54;102658.69;4921993;28;98013;-62
2021/03/01 02:06:19;;;;;;;5.80;4.43;;;;;;;11.50;56.55;102651.41;4920592;28;98477;-62
2021/03/01 02:09:09;;;;;;;5.65;4.32;;;;;;;11.49;56.57;102655.16;4921832;28;99322;-62
2021/03/01 02:12:18;;;;;;;6.38;4.65;;;;;;;11.48;56.60;102650.81;4922050;28;98149;-62
2021/03/01 02:15:11;;;;;;;6.47;4.57;;;;;;;11.46;56.83;102647.50;4924769;28;98564;-62
2021/03/01 02:17:37;;;;;;;6.28;4.75;;;;;;;11.46;57.14;102649.38;4925119;28;97776;-62
2021/03/01 02:20:07;;;;;;;5.97;4.57;;;;;;;11.48;57.23;102650.00;4910565;28;126439;-62
2021/03/01 02:22:33;;;;;;;6.03;4.43;;;;;;;11.47;56.58;102656.41;4922871;28;98943;-62
2021/03/01 02:25:04;;;;;;;6.35;4.60;;;;;;;11.47;56.97;102661.81;4955100;28;104927;-62
2021/03/01 02:27:32;;;;;;;6.15;4.57;;;;;;;11.47;57.26;102656.41;4922623;28;97986;-62
2021/03/01 02:30:20;;;;;;;6.20;4.32;;;;;;;11.44;56.68;102660.41;4924937;28;98283;-62
2021/03/01 02:32:46;;;;;;;6.88;4.40;;;;;;;11.45;57.43;102659.34;4907332;28;124676;-62
2021/03/01 02:35:13;;;;;;;5.15;4.13;;;;;;;11.46;56.86;102661.00;4888842;28;126946;-62
2021/03/01 02:37:39;;;;;;;5.90;4.50;;;;;;;11.48;57.34;102658.09;4939808;28;97792;-62
2021/03/01 02:40:06;;;;;;;6.15;4.10;;;;;;;11.47;56.48;102651.00;4906352;28;98548;-62
2021/03/01 02:42:32;;;;;;;5.50;4.43;;;;;;;11.45;56.79;102656.66;4922503;28;99164;-62
2021/03/01 02:44:58;;;;;;;6.32;4.82;;;;;;;11.44;57.24;102656.88;4937841;28;125699;-62
2021/03/01 02:47:25;;;;;;;5.63;4.53;;;;;;;11.47;56.92;102651.84;4906507;28;117022;-63
2021/03/01 02:49:56;;;;;;;6.30;4.28;;;;;;;11.45;56.79;102651.25;4924041;28;98440;-62
2021/03/01 02:52:22;;;;;;;5.70;4.57;;;;;;;11.47;56.95;102649.13;4905931;28;121043;-62
2021/03/01 02:54:48;;;;;;;5.97;4.72;;;;;;;11.45;56.78;102658.53;4889058;28;128650;-62
2021/03/01 02:57:14;;;;;;;5.88;4.28;;;;;;;11.46;56.57;102655.59;4922186;28;118278;-62
2021/03/01 02:59:40;;;;;;;5.43;4.18;;;;;;;11.44;57.05;102663.09;4906533;28;98345;-62
2021/03/01 03:02:06;;;;;;;5.97;4.55;;;;;;;11.44;57.07;102657.69;4890254;28;108337;-62
2021/03/01 03:04:33;;;;;;;5.55;4.30;;;;;;;11.41;57.06;102665.41;4920133;28;127231;-62
2021/03/01 03:07:00;;;;;;;6.00;4.40;;;;;;;11.44;56.76;102665.81;4922716;28;97952;-62
2021/03/01 03:09:26;;;;;;;5.72;4.35;;;;;;;11.46;56.86;102671.78;4905066;28;123219;-62
2021/03/01 03:11:52;;;;;;;6.15;4.45;;;;;;;11.45;57.10;102669.31;4889638;28;127088;-62
2021/03/01 03:14:22;;;;;;;6.10;4.43;;;;;;;11.45;57.29;102669.31;4904294;28;127463;-62
2021/03/01 03:16:52;;;;;;;5.78;4.68;;;;;;;11.43;56.72;102674.09;4922734;28;98095;-62
2021/03/01 03:19:19;;;;;;;5.90;4.30;;;;;;;11.43;57.11;102672.22;4873721;28;111094;-62
2021/03/01 03:21:45;;;;;;;5.70;3.97;;;;;;;11.44;56.59;102683.88;4906533;28;98309;-62
2021/03/01 03:24:11;;;;;;;5.15;4.30;;;;;;;11.42;57.36;102677.88;4904659;28;127784;-62
2021/03/01 03:26:37;;;;;;;5.95;4.75;;;;;;;11.42;57.10;102675.16;4924663;28;97917;-62
2021/03/01 03:29:03;;;;;;;5.53;4.20;;;;;;;11.41;57.31;102663.53;4924121;28;99203;-62
2021/03/01 03:31:29;;;;;;;6.35;4.50;;;;;;;11.39;56.70;102667.50;4922913;28;120960;-62
2021/03/01 03:33:55;;;;;;;6.13;4.47;;;;;;;11.42;56.99;102673.28;4920918;28;126666;-63
2021/03/01 03:36:24;;;;;;;6.20;4.35;;;;;;;11.38;56.96;102663.97;4921307;28;115932;-62
2021/03/01 03:39:25;;;;;;;5.80;4.32;;;;;;;11.36;56.99;102676.88;4921397;28;117588;-62
2021/03/01 03:41:51;;;;;;;6.63;4.32;;;;;;;11.37;57.17;102665.03;4861489;28;98376;-62
2021/03/01 03:44:17;;;;;;;6.13;4.13;;;;;;;11.38;56.83;102669.38;4890994;28;127779;-62
2021/03/01 03:46:43;;;;;;;5.25;4.20;;;;;;;11.37;57.03;102670.41;4923961;28;98313;-62
2021/03/01 03:49:10;;;;;;;6.63;4.70;;;;;;;11.38;56.64;102668.53;4923471;28;98251;-62
2021/03/01 03:51:36;;;;;;;5.97;4.40;;;;;;;11.37;57.07;102665.03;4955207;28;99043;-62
2021/03/01 03:54:17;;;;;;;6.55;4.57;;;;;;;11.34;57.39;102664.63;4936718;28;127592;-62
2021/03/01 03:56:53;;;;;;;5.85;4.32;;;;;;;11.34;57.18;102673.56;4924367;28;97870;-62
2021/03/01 03:59:20;;;;;;;6.20;4.50;;;;;;;11.34;57.01;102676.25;4921255;28;98927;-62
2021/03/01 04:01:49;;;;;;;6.03;4.43;;;;;;;11.33;57.57;102681.88;4921021;28;118679;-62
2021/03/01 04:04:16;;;;;;;6.18;4.80;;;;;;;11.35;57.16;102679.78;4905833;28;98141;-62
2021/03/01 04:06:42;;;;;;;6.40;4.57;;;;;;;11.35;56.91;102677.91;4937001;28;108519;-62
2021/03/01 04:09:10;;;;;;;6.15;4.45;;;;;;;11.34;56.84;102684.34;4904034;28;127954;-62
2021/03/01 04:11:38;;;;;;;6.22;4.85;;;;;;;11.33;57.30;102677.31;4921879;28;100461;-62
2021/03/01 04:14:04;;;;;;;6.22;4.53;;;;;;;11.32;57.31;102686.47;4904482;28;119109;-62
2021/03/01 04:16:30;;;;;;;5.65;4.38;;;;;;;11.37;57.12;102681.22;4936920;28;117505;-62
2021/03/01 04:19:01;;;;;;;5.28;4.55;;;;;;;11.40;57.04;102674.56;4937230;28;98729;-62
2021/03/01 04:21:27;;;;;;;6.05;4.70;;;;;;;11.43;57.12;102666.81;4937804;28;98174;-62
2021/03/01 04:23:53;;;;;;;6.13;4.53;;;;;;;11.48;56.92;102661.63;4952430;28;127652;-62
2021/03/01 04:26:19;;;;;;;6.43;5.10;;;;;;;11.49;57.01;102663.25;4953152;28;118019;-62
2021/03/01 04:28:45;;;;;;;5.95;4.93;;;;;;;11.51;56.46;102666.59;4919526;28;127915;-62
2021/03/01 04:31:11;;;;;;;6.18;4.72;;;;;;;11.52;56.34;102668.22;4904351;28;99293;-62
2021/03/01 04:33:38;;;;;;;6.93;5.28;;;;;;;11.57;56.25;102661.34;4887870;28;98156;-62
2021/03/01 04:36:05;;;;;;;6.20;4.53;;;;;;;11.53;56.60;102664.47;4921053;28;100255;-62
2021/03/01 04:38:32;;;;;;;5.70;4.40;;;;;;;11.53;56.36;102660.94;4920884;28;99452;-62
2021/03/01 04:40:58;;;;;;;6.40;5.13;;;;;;;11.52;56.33;102653.91;4920802;28;114416;-62
2021/03/01 04:43:24;;;;;;;6.72;5.10;;;;;;;11.52;56.08;102654.72;4887373;28;126703;-62
2021/03/01 04:45:51;;;;;;;5.80;4.85;;;;;;;11.52;56.59;102662.81;4953579;28;118639;-62
2021/03/01 04:48:17;;;;;;;6.38;4.32;;;;;;;11.52;56.14;102653.91;4936164;28;128356;-62
2021/03/01 04:50:46;;;;;;;5.78;4.53;;;;;;;11.52;56.50;102648.50;4920780;28;99172;-62
2021/03/01 04:53:12;;;;;;;5.85;4.47;;;;;;;11.54;56.81;102657.19;4921316;28;97910;-62
2021/03/01 04:55:38;;;;;;;6.78;4.72;;;;;;;11.49;56.59;102644.34;4936329;28;109961;-62
2021/03/01 04:58:04;;;;;;;6.32;4.60;;;;;;;11.48;56.64;102647.28;4919704;28;127231;-62
2021/03/01 05:00:30;;;;;;;6.65;4.80;;;;;;;11.49;56.30;102648.94;4922107;28;125870;-62
2021/03/01 05:02:56;;;;;;;6.10;4.60;;;;;;;11.48;56.28;102650.00;4952746;28;121335;-62
2021/03/01 05:05:22;;;;;;;5.88;4.90;;;;;;;11.49;56.70;102651.63;4903826;28;118705;-62
2021/03/01 05:07:48;;;;;;;7.47;5.40;;;;;;;11.48;56.59;102650.81;4935823;28;126438;-62
2021/03/01 05:10:14;;;;;;;5.97;4.82;;;;;;;11.48;56.36;102648.13;4903513;28;119358;-62
2021/03/01 05:12:40;;;;;;;6.50;5.00;;;;;;;11.48;56.20;102645.41;4920671;28;97855;-62
2021/03/01 05:15:07;;;;;;;5.72;4.57;;;;;;;11.46;56.37;102650.19;4922001;28;116663;-62
2021/03/01 05:17:33;;;;;;;6.43;4.75;;;;;;;11.46;56.57;102644.78;4922722;28;99148;-62
2021/03/01 05:19:59;;;;;;;6.10;4.60;;;;;;;11.44;56.70;102646.91;4903709;28;127589;-62
2021/03/01 05:22:25;;;;;;;6.10;4.70;;;;;;;11.46;56.55;102642.09;4921434;28;125078;-62
2021/03/01 05:24:51;;;;;;;6.38;4.85;;;;;;;11.46;56.51;102646.66;4922728;28;97986;-62
2021/03/01 05:27:19;;;;;;;6.25;5.32;;;;;;;11.43;56.50;102647.94;4919551;28;125241;-63
2021/03/01 05:29:45;;;;;;;7.28;5.18;;;;;;;11.43;56.76;102655.19;4922652;28;98002;-62
2021/03/01 05:32:11;;;;;;;6.50;5.28;;;;;;;11.43;56.68;102645.22;4936325;28;125987;-62
2021/03/01 05:34:37;;;;;;;7.00;4.93;;;;;;;11.44;56.39;102654.19;4919562;28;117514;-62
2021/03/01 05:37:03;;;;;;;6.95;4.90;;;;;;;11.42;56.37;102648.97;4920735;28;128158;-62
2021/03/01 05:39:29;;;;;;;6.13;4.82;;;;;;;11.40;57.13;102644.88;4918974;28;125844;-62
2021/03/01 05:41:56;;;;;;;6.45;4.93;;;;;;;11.40;56.75;102650.25;4919496;28;127452;-62
2021/03/01 05:44:22;;;;;;;6.20;4.82;;;;;;;11.43;56.43;102650.63;4921118;28;117175;-62
2021/03/01 05:46:48;;;;;;;5.55;4.65;;;;;;;11.41;56.59;102654.63;4889011;28;127589;-63
2021/03/01 05:49:14;;;;;;;7.13;4.85;;;;;;;11.40;56.56;102659.19;4891130;28;98433;-62
2021/03/01 05:51:41;;;;;;;7.25;5.18;;;;;;;11.41;56.52;102657.31;4906616;28;127159;-62
2021/03/01 05:54:07;;;;;;;6.35;4.70;;;;;;;11.43;56.88;102657.91;4889894;28;98021;-62
2021/03/01 05:56:33;;;;;;;6.63;4.90;;;;;;;11.41;56.60;102663.53;4937394;28;124291;-62
2021/03/01 05:59:00;;;;;;;6.20;5.03;;;;;;;11.41;56.92;102663.53;4903951;28;113274;-62
2021/03/01 06:01:26;;;;;;;6.13;4.60;;;;;;;11.41;56.89;102663.53;4920467;28;98293;-62
2021/03/01 06:03:52;;;;;;;5.75;4.63;;;;;;;11.42;56.43;102664.34;4922750;28;98087;-62
2021/03/01 06:06:18;;;;;;;7.63;4.95;;;;;;;11.40;56.55;102661.91;4922604;28;98633;-62
2021/03/01 06:08:44;;;;;;;6.68;4.80;;;;;;;11.42;56.41;102657.06;4923558;28;126941;-63
2021/03/01 06:11:10;;;;;;;5.88;4.70;;;;;;;11.42;56.79;102665.19;4903573;28;126877;-62
2021/03/01 06:13:36;;;;;;;5.82;4.75;;;;;;;11.44;56.15;102655.00;4904837;28;97849;-63
2021/03/01 06:16:04;;;;;;;6.85;4.78;;;;;;;11.43;57.00;102664.13;4904405;28;98605;-62
2021/03/01 06:18:30;;;;;;;5.75;4.78;;;;;;;11.47;56.72;102665.34;4920848;28;99172;-62
2021/03/01 06:21:16;;;;;;;7.50;5.00;;;;;;;11.47;56.63;102672.63;4921172;28;124684;-62
2021/03/01 06:23:44;;;;;;;6.57;4.85;;;;;;;11.49;56.60;102678.66;4922930;28;97917;-62
2021/03/01 06:26:32;;;;;;;5.75;4.78;;;;;;;11.48;56.80;102679.69;4922296;28;99362;-62
2021/03/01 06:29:04;;;;;;;7.38;5.13;;;;;;;11.48;57.21;102679.69;4922120;28;97904;-63
2021/03/01 06:31:43;;;;;;;6.30;5.10;;;;;;;11.52;57.25;102687.13;4922293;28;97976;-62
2021/03/01 06:34:16;;;;;;;6.20;4.85;;;;;;;11.51;57.12;102687.34;4922735;28;98065;-62
2021/03/01 06:37:06;;;;;;;6.38;4.47;;;;;;;11.52;56.85;102686.31;4922310;28;102269;-62
2021/03/01 06:39:35;;;;;;;6.03;4.63;;;;;;;11.52;56.96;102681.72;4921524;28;98053;-62
2021/03/01 06:42:30;;;;;;;7.78;5.22;;;;;;;11.57;57.77;102696.44;4922379;28;98371;-63
2021/03/01 06:45:00;;;;;;;5.75;4.35;;;;;;;11.54;57.91;102689.59;4908885;28;98076;-62
2021/03/01 06:47:51;;;;;;;7.53;5.05;;;;;;;11.58;57.45;102696.22;4921333;28;98558;-62
2021/03/01 06:50:45;;;;;;;7.20;5.10;;;;;;;11.59;57.94;102695.16;4921622;28;98817;-62
2021/03/01 06:53:11;;;;;;;7.22;4.95;;;;;;;11.61;58.31;102695.78;4921884;28;98207;-62
2021/03/01 06:56:11;;;;;;;6.70;4.90;;;;;;;11.64;58.48;102692.66;4922801;28;97877;-62
2021/03/01 06:58:47;;;;;;;6.82;5.20;;;;;;;11.65;57.98;102694.28;4921283;28;98740;-62
2021/03/01 07:01:21;;;;;;;6.70;5.30;;;;;;;11.66;58.66;102698.66;4923872;28;98779;-62
2021/03/01 07:03:49;;;;;;;7.40;5.35;;;;;;;11.70;58.40;102699.03;4919309;28;97970;-63
2021/03/01 07:06:16;;;;;;;7.35;4.93;;;;;;;11.73;58.56;102699.41;4924839;28;97941;-62
2021/03/01 07:08:48;;;;;;;6.53;5.13;;;;;;;11.76;58.37;102706.25;4923945;28;98691;-63
2021/03/01 07:11:27;;;;;;;6.85;5.40;;;;;;;11.78;58.75;102701.44;4923498;28;99017;-62
2021/03/01 07:13:58;;;;;;;6.25;5.35;;;;;;;11.79;58.88;102709.34;4923446;28;98142;-62
2021/03/01 07:16:24;;;;;;;6.78;5.35;;;;;;;11.82;58.64;102715.34;4924749;28;98119;-62
2021/03/01 07:18:50;;;;;;;7.22;5.35;;;;;;;11.84;58.93;102721.41;4889509;28;98529;-62
2021/03/01 07:21:16;;;;;;;7.63;6.15;;;;;;;11.84;58.69;102721.41;4924152;28;98384;-62
2021/03/01 07:23:45;;;;;;;7.25;5.53;;;;;;;11.85;58.93;102720.34;4922500;28;127634;-62
2021/03/01 07:26:12;;;;;;;8.05;5.90;;;;;;;11.87;59.28;102723.66;4923962;28;97905;-62
2021/03/01 07:29:15;;;;;;;7.45;5.80;;;;;;;11.88;59.18;102736.13;4923668;28;98796;-62
2021/03/01 07:31:50;;;;;;;8.52;6.10;;;;;;;11.90;59.35;102728.63;4921533;28;119601;-62
2021/03/01 07:34:17;;;;;;;8.38;6.25;;;;;;;11.92;59.14;102732.75;4921502;28;106799;-62
2021/03/01 07:36:43;;;;;;;7.38;5.65;;;;;;;11.95;59.26;102728.81;4922807;28;97898;-62
2021/03/01 07:39:10;;;;;;;7.85;6.15;;;;;;;11.97;58.94;102727.50;4922270;28;126835;-62
2021/03/01 07:41:37;;;;;;;7.72;6.22;;;;;;;12.02;59.39;102732.25;4924367;28;98468;-62
2021/03/01 07:44:04;;;;;;;7.88;6.00;;;;;;;12.06;58.98;102733.44;4923552;28;104439;-62
2021/03/01 07:46:39;;;;;;;7.78;6.05;;;;;;;12.08;59.25;102734.06;4923574;28;98078;-62
2021/03/01 07:49:05;;;;;;;7.05;5.55;;;;;;;12.12;59.12;102739.88;4921824;28;98533;-62
2021/03/01 07:51:48;;;;;;;6.97;5.90;;;;;;;12.15;59.52;102744.81;4922156;28;128849;-62
2021/03/01 07:54:17;;;;;;;7.70;6.15;;;;;;;12.19;59.32;102752.25;4922465;28;121191;-62
2021/03/01 07:56:48;;;;;;;8.02;5.95;;;;;;;12.20;59.37;102748.50;4922945;28;106436;-62
2021/03/01 07:59:21;;;;;;;8.68;6.50;;;;;;;12.22;58.93;102743.72;4921491;28;98242;-62
2021/03/01 08:02:14;;;;;;;8.48;6.60;;;;;;;12.25;59.58;102751.34;4922593;28;98324;-62
2021/03/01 08:04:40;;;;;;;8.77;6.88;;;;;;;12.28;59.44;102750.91;4921641;28;97884;-62
2021/03/01 08:07:07;;;;;;;9.23;6.65;;;;;;;12.31;59.35;102752.34;4922122;28;97995;-62
2021/03/01 08:09:55;;;;;;;8.20;6.88;;;;;;;12.36;59.12;102744.38;4921060;28;128239;-62
2021/03/01 08:12:36;;;;;;;9.27;7.47;;;;;;;12.41;59.24;102736.41;4923475;28;99591;-62
2021/03/01 08:15:09;;;;;;;10.27;7.78;;;;;;;12.42;59.09;102748.91;4923636;28;97752;-62
2021/03/01 08:17:37;;;;;;;10.85;8.02;;;;;;;12.48;59.06;102749.88;4923367;28;98060;-62
2021/03/01 08:20:13;;;;;;;10.77;8.38;;;;;;;12.51;59.05;102750.25;4923513;28;98092;-62
2021/03/01 08:23:07;;;;;;;10.63;8.63;;;;;;;12.59;59.09;102742.91;4923618;28;98298;-62
2021/03/01 08:25:48;;;;;;;12.32;9.10;;;;;;;12.62;58.74;102735.16;4922330;28;97918;-62
2021/03/01 08:28:17;;;;;;;11.18;8.98;;;;;;;12.67;58.63;102740.72;4923262;28;98154;-62
2021/03/01 08:30:47;;;;;;;11.43;9.10;;;;;;;12.72;58.63;102746.25;4922532;28;98856;-62
2021/03/01 08:33:22;;;;;;;11.27;9.55;;;;;;;12.78;58.58;102752.66;4922846;28;98087;-62
2021/03/01 08:35:50;;;;;;;13.05;10.05;;;;;;;12.81;58.41;102749.50;4923177;28;97708;-62
2021/03/01 08:38:53;;;;;;;12.00;10.13;;;;;;;12.88;58.57;102750.22;4923132;28;97998;-62
2021/03/01 08:41:30;;;;;;;12.20;10.30;;;;;;;12.95;58.50;102745.56;4922518;28;99017;-62
2021/03/01 08:43:56;;;;;;;13.57;10.52;;;;;;;13.04;58.11;102743.34;4921605;28;98493;-62
2021/03/01 08:46:22;;;;;;;14.80;11.10;;;;;;;13.08;58.33;102741.84;4920062;28;120783;-62
2021/03/01 08:48:51;;;;;;;13.32;10.98;;;;;;;13.11;58.32;102743.28;4921082;28;118856;-62
2021/03/01 08:51:17;;;;;;;12.65;10.50;;;;;;;13.13;58.25;102746.59;4922152;28;121527;-62
2021/03/01 08:53:43;;;;;;;14.88;11.50;;;;;;;13.16;58.42;102749.66;4921867;28;124191;-62
2021/03/01 08:56:21;;;;;;;12.43;10.88;;;;;;;13.21;58.39;102743.56;4922605;28;97942;-62
2021/03/01 08:58:47;;;;;;;13.73;10.77;;;;;;;13.26;58.33;102746.44;4923071;28;98018;-62
2021/03/01 09:01:13;;;;;;;13.57;11.23;;;;;;;13.30;58.38;102747.63;4921423;28;121453;-62
2021/03/01 09:03:40;;;;;;;14.32;11.07;;;;;;;13.35;58.25;102755.88;4920033;28;127418;-62
2021/03/01 09:06:19;;;;;;;12.50;11.15;;;;;;;13.40;58.17;102755.19;4904974;28;97966;-62
2021/03/01 09:08:47;;;;;;;14.55;11.70;;;;;;;13.42;58.20;102756.63;4920890;28;98426;-62
2021/03/01 09:11:24;;;;;;;13.32;11.93;;;;;;;13.46;58.12;102751.56;4922212;28;100348;-62
2021/03/01 09:14:01;;;;;;;13.70;11.90;;;;;;;13.47;58.19;102754.03;4922468;28;99476;-62
2021/03/01 09:16:28;;;;;;;14.07;11.68;;;;;;;13.49;58.37;102767.34;4922282;28;97916;-62
2021/03/01 09:19:03;;;;;;;16.75;12.30;;;;;;;13.48;58.66;102765.72;4922753;28;98129;-62
2021/03/01 09:21:29;;;;;;;15.05;12.00;;;;;;;13.51;58.49;102773.34;4925709;28;97907;-62
2021/03/01 09:23:56;;;;;;;13.93;12.18;;;;;;;13.51;58.30;102768.75;4925197;28;122995;-62
2021/03/01 09:26:33;;;;;;;15.05;12.30;;;;;;;13.51;58.57;102768.75;4925788;28;98464;-62
2021/03/01 09:29:10;;;;;;;15.55;12.63;;;;;;;13.54;58.41;102761.25;4921848;28;111219;-62
2021/03/01 09:31:47;;;;;;;15.55;13.05;;;;;;;13.54;58.70;102756.66;4924209;28;119933;-62
2021/03/01 09:34:15;;;;;;;18.48;14.02;;;;;;;13.58;58.56;102754.28;4923314;28;124600;-62
2021/03/01 09:36:47;;;;;;;14.88;12.80;;;;;;;13.59;58.60;102759.47;4923422;28;97944;-62
2021/03/01 09:39:22;;;;;;;16.73;13.18;;;;;;;13.61;58.40;102754.66;4925642;28;97743;-62
2021/03/01 09:41:49;;;;;;;17.02;14.25;;;;;;;13.69;58.54;102758.91;4926538;28;98414;-63
2021/03/01 09:44:26;;;;;;;18.60;14.50;;;;;;;13.70;58.31;102761.38;4925069;28;98895;-62
2021/03/01 09:46:54;;;;;;;16.77;14.48;;;;;;;13.75;58.23;102753.41;4925274;28;101933;-62
2021/03/01 09:49:20;;;;;;;18.17;14.45;;;;;;;13.82;57.89;102755.97;4907331;28;98043;-62
2021/03/01 09:51:46;;;;;;;18.95;14.85;;;;;;;13.85;58.31;102766.38;4923794;28;98277;-62
2021/03/01 09:54:12;;;;;;;18.02;15.02;;;;;;;13.91;58.36;102761.88;4924621;28;101563;-62
2021/03/01 09:56:43;;;;;;;17.85;14.73;;;;;;;14.03;57.96;102753.75;4924784;28;123509;-62
2021/03/01 09:59:10;;;;;;;16.98;14.30;;;;;;;14.15;57.92;102752.72;4925175;28;97782;-62
2021/03/01 10:01:36;;;;;;;18.65;15.00;;;;;;;14.24;57.37;102751.28;4924888;28;99040;-62
2021/03/01 10:04:02;;;;;;;18.30;14.98;;;;;;;14.34;57.57;102744.44;4924103;28;127708;-62
2021/03/01 10:06:38;;;;;;;18.58;14.70;;;;;;;14.35;57.78;102743.41;4924436;28;114623;-62
2021/03/01 10:09:07;;;;;;;18.30;15.48;;;;;;;14.41;57.46;102747.84;4924906;28;97772;-62
2021/03/01 10:11:33;;;;;;;19.17;16.10;;;;;;;14.44;57.44;102748.19;4924695;28;102524;-62
2021/03/01 10:14:18;;;;;;;20.25;15.55;;;;;;;14.47;57.76;102758.59;4921967;28;127650;-62
2021/03/01 10:16:44;;;;;;;18.52;15.13;;;;;;;14.42;58.36;102757.63;4890571;28;127712;-62
2021/03/01 10:19:18;;;;;;;18.90;15.73;;;;;;;14.40;58.05;102762.50;4923578;28;116764;-62
2021/03/01 10:21:46;;;;;;;19.92;15.93;;;;;;;14.39;58.24;102761.66;4925678;28;98360;-62
2021/03/01 10:24:13;;;;;;;19.40;16.00;;;;;;;14.42;58.42;102758.50;4924475;28;98977;-62
2021/03/01 10:27:00;;;;;;;19.13;15.70;;;;;;;14.41;58.32;102761.41;4922865;28;98180;-62
2021/03/01 10:29:49;;;;;;;18.83;15.52;;;;;;;14.53;58.20;102758.72;4925259;28;97871;-62
2021/03/01 10:32:22;;;;;;;17.90;15.18;;;;;;;14.47;58.44;102761.31;4914908;28;128275;-62
2021/03/01 10:34:49;;;;;;;18.88;15.52;;;;;;;14.46;58.15;102764.22;4924499;28;98612;-62
2021/03/01 10:37:18;;;;;;;19.48;16.20;;;;;;;14.51;58.56;102767.09;4924426;28;97758;-63
2021/03/01 10:39:48;;;;;;;19.85;15.75;;;;;;;14.58;58.15;102759.66;4922118;28;103825;-62
2021/03/01 10:42:24;;;;;;;19.35;15.60;;;;;;;14.66;57.99;102766.63;4923702;28;128031;-62
2021/03/01 10:44:59;;;;;;;18.60;15.60;;;;;;;14.80;58.05;102772.59;4924920;28;98367;-62
2021/03/01 10:47:30;;;;;;;18.20;15.38;;;;;;;14.90;57.74;102762.78;4907140;28;98048;-63
2021/03/01 10:50:18;;;;;;;18.65;15.32;;;;;;;15.01;57.58;102766.50;4924316;28;98438;-62
2021/03/01 10:52:44;;;;;;;19.20;15.70;;;;;;;15.15;57.55;102767.88;4922536;28;99153;-62
2021/03/01 10:55:10;;;;;;;19.13;15.70;;;;;;;15.38;57.06;102763.41;4923815;28;126316;-62
2021/03/01 10:57:36;;;;;;;19.00;15.70;;;;;;;15.58;56.46;102762.94;4924600;28;99100;-63
2021/03/01 11:00:02;;;;;;;19.00;15.98;;;;;;;15.83;56.20;102763.38;4923375;28;116682;-62
2021/03/01 11:02:28;;;;;;;18.50;15.15;;;;;;;16.07;56.13;102760.47;4924384;28;98404;-62
2021/03/01 11:04:54;;;;;;;18.92;15.55;;;;;;;16.36;55.58;102758.47;4922212;28;98078;-62
2021/03/01 11:07:21;;;;;;;17.65;15.20;;;;;;;16.71;55.14;102762.75;4923637;28;127485;-63
2021/03/01 11:09:47;;;;;;;17.77;15.63;;;;;;;16.91;54.86;102750.22;4922347;28;98291;-62
2021/03/01 11:12:14;;;;;;;18.90;16.45;;;;;;;17.04;55.17;102750.88;4923720;28;128082;-63
2021/03/01 11:14:40;;;;;;;19.60;15.18;;;;;;;17.10;55.34;102749.88;4906156;28;100615;-63
2021/03/01 11:17:06;;;;;;;17.15;15.27;;;;;;;17.16;55.34;102746.94;4923712;28;126855;-63
2021/03/01 11:19:32;;;;;;;17.20;15.32;;;;;;;17.11;55.51;102749.63;4924321;28;98001;-62
2021/03/01 11:21:58;;;;;;;18.58;16.08;;;;;;;17.05;55.88;102747.06;4922821;28;128176;-63
2021/03/01 11:24:24;;;;;;;17.83;15.75;;;;;;;17.13;55.94;102738.44;4923056;28;127635;-63
2021/03/01 11:26:50;;;;;;;17.90;15.88;;;;;;;17.13;55.52;102730.28;4922987;28;128028;-62
2021/03/01 11:29:17;;;;;;;18.25;15.85;;;;;;;17.07;55.91;102739.50;4923601;28;97921;-62